Thornville, Ohio
Current Conditions -  °F | °C
As of 1:54 AM on Friday 28 Nov 2014 (Local Time) from KVTA Reporting Station
Overcast Overcast  
Wind Chill: 19°   Ceiling: 3000
Heat Index: 29°   Visibility: 10mi
Dew Point: 20°   Wind: 13mph
Humidity: 69%   Direction: 290°WNW
Pressure: 30.31"   Gusts: 18mph
Location:  39.9°N, 82.42°W
Report Text: KVTA 280654Z AUTO 29011G16KT 10SM FEW023 BKN030 OVC055 M02/M07 A3031 RMK AO2 SNB08E18 SLP272 P0000 T10171067
Loading
Personal Weather Stations






























Interactive Weather Map New forecast layout! Learn more

10-Day Weather Forecast

Advertisements
Track Severe Weather on mobile